AKDT,Max TemperatureF,Mean TemperatureF,Min TemperatureF,Max Dew PointF,MeanDew PointF,Min DewpointF,Max Humidity, Mean Humidity, Min Humidity, Max Sea Level PressureIn, Mean Sea Level PressureIn, Min Sea Level PressureIn, Max VisibilityMiles, Mean VisibilityMiles, Min VisibilityMiles, Max Wind SpeedMPH, Mean Wind SpeedMPH, Max Gust SpeedMPH,PrecipitationIn, CloudCover, Events, WindDirDegrees
2013-5-1,5,-6,-18,-2,-12,-24,78,73,71,30.36,30.24,30.15,10,4,2,18,14,,0.00,6,Snow,236
2013-5-2,12,6,1,7,-1,-4,85,77,72,30.20,30.18,30.17,10,9,5,16,9,,0.00,6,Snow,257
2013-5-3,15,10,5,5,3,0,85,75,62,30.27,30.26,30.25,10,8,3,12,7,,0.00,7,Snow,266
2013-5-4,14,10,5,3,2,1,85,69,57,30.24,30.20,30.18,10,8,5,7,2,,0.00,7,Snow,140
2013-5-5,6,-3,-9,0,-9,-15,85,77,71,30.20,30.19,30.16,10,5,0,12,8,,0.00,1,Fog,107
2013-5-6,28,16,5,23,14,0,80,77,69,30.10,30.09,30.09,10,9,4,12,9,,0.00,6,Snow,200
2013-5-7,28,17,6,21,14,1,80,76,74,30.16,30.12,30.10,10,10,10,15,12,,0.00,6,,218
2013-5-8,28,24,19,21,19,16,86,80,74,30.31,30.22,30.15,10,6,2,9,6,,0.00,7,Snow,263
2013-5-9,33,28,24,27,24,21,86,80,75,30.31,30.28,30.24,10,10,8,139,14,,0.00,6,,198
2013-5-10,33,22,12,27,19,9,86,78,74,30.17,30.14,30.10,10,10,10,12,10,,0.00,3,,207
2013-5-11,35,24,12,30,21,9,87,83,80,29.99,29.92,29.86,10,7,2,14,9,,0.00,6,,217
2013-5-12,33,30,28,28,26,25,93,83,70,29.95,29.60,29.52,2,1,1,18,10,,0.00,8,Snow,99
2013-5-13,21,16,10,12,9,5,86,75,63,29.49,29.47,29.43,10,8,3,18,12,,0.00,6,Snow,114
2013-5-14,14,10,6,7,5,3,85,80,73,29.70,29.69,29.63,17,5,0,25,22,34,0.00,8,Fog-Snow,260
2013-5-15,24,14,5,14,7,0,79,70,50,29.65,29.64,29.63,10,10,7,12,9,,0.00,3,,154
2013-5-16,37,22,8,28,18,3,79,73,65,29.54,29.45,29.39,10,10,10,16,10,,0.00,5,,120
2013-5-17,19,17,15,16,11,7,86,77,63,29.79,29.65,29.52,10,6,1,15,13,,0.00,8,Snow,272
2013-5-18,17,14,10,10,7,5,85,77,68,30.07,29.94,29.86,10,6,1,15,10,,0.00,5,Snow,253
2013-5-19,30,15,0,19,7,-9,72,64,59,30.31,30.27,30.22,10,10,10,18,13,,0.00,3,,171
2013-5-20,37,34,30,30,28,25,87,77,65,30.44,30.42,30.38,10,9,8,21,14,26,0.00,7,Snow,195
2013-5-21,41,36,30,30,28,25,87,75,61,30.35,30.25,30.19,10,9,8,13,9,,0.00,6,,151
2013-5-22,41,37,33,32,31,30,87,79,70,30.22,30.20,30.17,10,10,8,17,11,,0.00,7,,61
2013-5-23,32,29,26,28,26,23,87,85,80,30.14,30.12,30.11,10,4,1,20,16,,0.00,7,,81
2013-5-24,39,34,30,32,30,27,93,82,75,30.22,30.17,30.13,10,8,8,9,6,,0.00,7,,240
2013-5-25,35,32,28,30,28,25,93,86,80,30.19,30.10,30.02,10,3,0,15,11,,0.00,6,Fog,93
2013-5-26,42,35,28,32,29,25,93,81,66,29.98,29.91,29.86,10,8,8,15,9,,0.00,6,,76
2013-5-27,33,32,30,30,30,28,93,90,81,30.14,30.12,30.09,8,4,1,12,8,,0.00,8,,2
2013-5-28,35,32,30,30,29,27,93,83,75,30.10,30.06,30.01,10,5,1,18,13,,0.00,8,,69
2013-5-29,35,34,32,30,29,28,93,84,75,30.05,30.02,29.98,10,8,3,9,5,,0.00,6,Fog-Snow,295
2013-5-30,35,32,28,28,27,25,93,79,65,30.20,30.17,30.11,10,9,2,8,5,,0.00,6,Snow,7
2013-5-31,35,32,30,30,28,27,93,83,75,30.28,30.25,30.22,10,8,3,10,6,,0.00,6,Snow,287